Time;durP1;ratioP1;P1;durP2;ratioP2;P2;SDS_P1;SDS_P2;PMS_P1;PMS_P2;Temp;Humidity;BMP_temperature;BMP_pressure;BME280_temperature;BME280_humidity;BME280_pressure;Samples;Min_cycle;Max_cycle;Signal;HPM_P1;HPM_P2
2023/05/20 00:01:57;;;;;;;3.38;2.28;;;;;;;21.16;60.41;101155.44;5096401;28;20495;-48
2023/05/20 00:04:24;;;;;;;3.53;2.35;;;;;;;21.16;60.51;101160.84;5095815;28;20044;-51
2023/05/20 00:06:53;;;;;;;3.42;2.28;;;;;;;21.15;60.46;101159.13;5095843;28;20044;-48
2023/05/20 00:09:20;;;;;;;3.90;2.30;;;;;;;21.15;60.47;101152.91;5096082;28;20395;-50
2023/05/20 00:11:48;;;;;;;3.72;2.40;;;;;;;21.15;60.52;101152.91;5095506;28;20044;-58
2023/05/20 00:14:15;;;;;;;3.65;2.03;;;;;;;21.15;60.44;101140.28;5095354;28;20036;-58
2023/05/20 00:16:42;;;;;;;3.35;1.90;;;;;;;21.14;60.45;101148.47;5095939;28;20044;-58
2023/05/20 00:19:10;;;;;;;5.55;2.60;;;;;;;21.15;60.42;101148.38;5094261;28;20403;-57
2023/05/20 00:21:37;;;;;;;5.70;2.60;;;;;;;21.14;60.37;101143.94;5095593;28;20040;-49
2023/05/20 00:24:05;;;;;;;7.68;2.90;;;;;;;21.14;60.37;101149.31;5095416;28;20040;-49
2023/05/20 00:26:32;;;;;;;3.80;2.78;;;;;;;21.14;60.54;101148.47;5095796;28;20056;-48
2023/05/20 00:29:00;;;;;;;5.18;2.25;;;;;;;21.14;60.40;101153.88;5095285;28;20040;-48
2023/05/20 00:31:27;;;;;;;6.03;2.40;;;;;;;21.13;60.44;101147.63;5095330;28;20048;-57
2023/05/20 00:33:54;;;;;;;4.03;1.90;;;;;;;21.12;60.33;101145.94;5093209;28;20052;-57
2023/05/20 00:36:22;;;;;;;4.07;2.10;;;;;;;21.12;60.44;101135.16;5074936;28;20056;-57
2023/05/20 00:38:49;;;;;;;4.97;2.42;;;;;;;21.14;60.34;101141.25;5074720;28;20052;-57
2023/05/20 00:41:17;;;;;;;3.63;1.95;;;;;;;21.14;60.49;101140.41;5073022;28;20053;-49
2023/05/20 00:43:44;;;;;;;2.90;2.00;;;;;;;21.13;60.45;101139.56;5073441;28;20051;-49
2023/05/20 00:46:12;;;;;;;4.68;2.65;;;;;;;21.13;60.32;101131.47;5075135;28;20488;-49
2023/05/20 00:48:42;;;;;;;4.75;2.63;;;;;;;21.12;60.23;101124.41;5074887;28;20052;-49
2023/05/20 00:51:11;;;;;;;7.70;2.47;;;;;;;21.12;60.34;101123.56;5074618;28;20114;-57
2023/05/20 00:53:40;;;;;;;3.35;2.00;;;;;;;21.12;60.25;101112.78;5074467;28;20044;-57
2023/05/20 00:56:08;;;;;;;3.75;2.20;;;;;;;21.12;60.23;101113.63;5074457;28;20048;-57
2023/05/20 00:58:37;;;;;;;4.13;1.98;;;;;;;21.11;60.27;101111.09;5074688;28;20416;-57
2023/05/20 01:01:05;;;;;;;3.85;2.42;;;;;;;21.12;60.30;101108.25;5074442;28;20492;-50
2023/05/20 01:03:33;;;;;;;3.13;1.90;;;;;;;21.12;60.26;101108.25;5072776;28;20072;-49
2023/05/20 01:06:01;;;;;;;3.40;1.85;;;;;;;21.12;60.27;101088.56;5073150;28;20059;-50
2023/05/20 01:08:29;;;;;;;3.63;2.25;;;;;;;21.11;60.28;101105.69;5073356;28;20059;-49
2023/05/20 01:11:05;;;;;;;5.03;2.25;;;;;;;21.10;60.39;101096.75;5074157;28;20047;-57
2023/05/20 01:13:42;;;;;;;3.00;1.90;;;;;;;21.11;60.37;101095.78;5073611;28;20060;-57
2023/05/20 01:16:10;;;;;;;3.10;1.95;;;;;;;21.11;60.23;101090.41;5074338;28;20056;-57
2023/05/20 01:18:38;;;;;;;3.28;2.00;;;;;;;21.11;60.29;101089.56;5074516;28;20041;-57
2023/05/20 01:21:08;;;;;;;4.50;2.55;;;;;;;21.11;60.15;101090.41;5073739;28;20047;-57
2023/05/20 01:23:40;;;;;;;3.28;1.95;;;;;;;21.10;60.21;101085.97;5073890;28;20049;-58
2023/05/20 01:26:12;;;;;;;5.35;2.45;;;;;;;21.11;60.23;101095.78;5091672;28;20059;-58
2023/05/20 01:28:42;;;;;;;3.77;2.10;;;;;;;21.10;60.32;101091.38;5094668;28;20043;-58
2023/05/20 01:31:16;;;;;;;4.88;2.17;;;;;;;21.09;60.19;101092.34;5094393;28;20280;-49
2023/05/20 01:33:46;;;;;;;3.75;1.98;;;;;;;21.11;60.26;101082.31;5076273;28;20484;-50
2023/05/20 01:36:14;;;;;;;3.15;2.03;;;;;;;21.09;60.26;101084.28;5094308;28;20047;-50
2023/05/20 01:38:42;;;;;;;3.75;2.40;;;;;;;21.10;60.17;101080.59;5092819;28;20048;-50
2023/05/20 01:41:11;;;;;;;3.13;2.05;;;;;;;21.10;60.26;101077.91;5080563;28;20506;-59
2023/05/20 01:43:39;;;;;;;4.32;2.15;;;;;;;21.10;60.25;101082.44;5073739;28;20422;-58
2023/05/20 01:46:07;;;;;;;3.65;2.00;;;;;;;21.09;60.17;101078.91;5076385;28;20054;-58
2023/05/20 01:48:37;;;;;;;4.13;2.38;;;;;;;21.10;60.26;101077.91;5093886;28;20048;-58
2023/05/20 01:51:04;;;;;;;4.43;2.42;;;;;;;21.10;60.17;101079.75;5092556;28;20480;-59
2023/05/20 01:53:32;;;;;;;5.72;2.40;;;;;;;21.09;60.19;101076.22;5092788;28;20063;-59
2023/05/20 01:55:59;;;;;;;3.35;2.40;;;;;;;21.09;60.15;101073.50;5092935;28;20036;-58
2023/05/20 01:58:27;;;;;;;3.25;2.05;;;;;;;21.10;60.33;101066.28;5092286;28;20515;-59
2023/05/20 02:00:54;;;;;;;3.40;2.13;;;;;;;21.09;60.18;101051.97;5078908;28;20509;-58
2023/05/20 02:03:22;;;;;;;2.80;2.08;;;;;;;21.08;60.19;101047.59;5073108;28;20075;-59
2023/05/20 02:05:49;;;;;;;4.18;2.47;;;;;;;21.09;60.23;101043.91;5073240;28;20044;-58
2023/05/20 02:08:17;;;;;;;4.53;2.78;;;;;;;21.10;60.17;101050.13;5073577;28;20049;-59
2023/05/20 02:10:47;;;;;;;4.15;2.30;;;;;;;21.08;60.19;101047.59;5073495;28;20370;-50
2023/05/20 02:13:14;;;;;;;3.38;2.10;;;;;;;21.08;60.26;101042.22;5073286;28;20072;-52
2023/05/20 02:15:42;;;;;;;4.68;2.08;;;;;;;21.10;60.19;101044.75;5072163;28;20059;-50
2023/05/20 02:18:11;;;;;;;3.60;1.88;;;;;;;21.09;60.21;101035.81;5072592;28;20055;-49
2023/05/20 02:20:39;;;;;;;5.15;2.55;;;;;;;21.08;60.31;101039.53;5072173;28;20055;-50
2023/05/20 02:23:07;;;;;;;3.47;2.13;;;;;;;21.08;60.33;101036.81;5072970;28;20110;-52
2023/05/20 02:25:36;;;;;;;4.63;2.20;;;;;;;21.08;60.29;101030.59;5072626;28;20043;-49
2023/05/20 02:28:04;;;;;;;3.53;1.85;;;;;;;21.08;60.36;101031.44;5072778;28;20044;-50
2023/05/20 02:30:32;;;;;;;3.83;2.47;;;;;;;21.08;60.40;101031.44;5071876;28;20056;-50
2023/05/20 02:33:00;;;;;;;4.13;2.63;;;;;;;21.09;60.31;101016.97;5088026;28;20063;-50
2023/05/20 02:35:27;;;;;;;3.75;2.28;;;;;;;21.08;60.31;101017.97;5092755;28;20048;-49
2023/05/20 02:37:55;;;;;;;5.93;2.78;;;;;;;21.09;60.44;101024.22;5091488;28;20048;-50
2023/05/20 02:40:22;;;;;;;4.70;2.42;;;;;;;21.08;60.48;101012.59;5093358;28;20059;-50
2023/05/20 02:42:50;;;;;;;3.88;2.40;;;;;;;21.07;60.46;101013.59;5072375;28;20055;-51
2023/05/20 02:45:17;;;;;;;3.35;2.20;;;;;;;21.08;60.36;101012.59;5073070;28;20071;-53
2023/05/20 02:47:45;;;;;;;5.22;2.45;;;;;;;21.07;60.43;101010.91;5083567;28;20048;-50
2023/05/20 02:50:12;;;;;;;3.50;2.40;;;;;;;21.07;60.50;101008.22;5091709;28;20056;-58
2023/05/20 02:52:41;;;;;;;7.15;2.40;;;;;;;21.08;60.47;101003.69;5092138;28;20052;-58
2023/05/20 02:55:09;;;;;;;3.47;2.20;;;;;;;21.09;60.61;101008.91;5091967;28;20059;-58
2023/05/20 02:57:37;;;;;;;3.88;2.00;;;;;;;21.08;60.69;101007.22;5091596;28;20060;-58
2023/05/20 03:00:10;;;;;;;3.97;2.40;;;;;;;21.08;60.66;101009.06;5071682;28;20051;-50
2023/05/20 03:02:38;;;;;;;3.30;1.65;;;;;;;21.09;60.71;101002.69;5072460;28;20056;-52
2023/05/20 03:05:07;;;;;;;3.10;1.67;;;;;;;21.09;60.46;101005.38;5071076;28;20044;-51
2023/05/20 03:07:35;;;;;;;4.68;2.40;;;;;;;21.08;60.72;100999.13;5072656;28;20049;-50
2023/05/20 03:10:06;;;;;;;4.03;2.40;;;;;;;21.09;60.94;100994.59;5075221;28;20061;-58
2023/05/20 03:12:34;;;;;;;2.95;1.77;;;;;;;21.09;60.80;100995.44;5075213;28;20052;-58
2023/05/20 03:15:02;;;;;;;3.08;1.50;;;;;;;21.08;60.90;100993.75;5092728;28;20044;-59
2023/05/20 03:17:30;;;;;;;2.95;1.75;;;;;;;21.09;60.99;100992.75;5075134;28;20052;-59
2023/05/20 03:19:57;;;;;;;3.40;1.92;;;;;;;21.08;61.05;100991.06;5076678;28;20040;-58
2023/05/20 03:22:25;;;;;;;3.08;1.67;;;;;;;21.08;61.07;100993.75;5074460;28;20060;-59
2023/05/20 03:24:52;;;;;;;3.95;2.55;;;;;;;21.08;61.10;100987.53;5091844;28;20052;-58
2023/05/20 03:27:20;;;;;;;3.22;2.00;;;;;;;21.09;60.88;100997.28;5076592;28;20489;-58
2023/05/20 03:29:47;;;;;;;3.08;2.25;;;;;;;21.08;60.92;100985.69;5076212;28;20412;-57
2023/05/20 03:32:16;;;;;;;3.30;2.35;;;;;;;21.08;60.85;100987.53;5074779;28;20071;-58
2023/05/20 03:34:43;;;;;;;3.60;1.90;;;;;;;21.08;60.98;100982.13;5074896;28;20067;-53
2023/05/20 03:37:11;;;;;;;4.03;1.67;;;;;;;21.08;61.09;100982.13;5078863;28;20048;-51
2023/05/20 03:39:38;;;;;;;3.72;1.48;;;;;;;21.09;61.12;100984.69;5094994;28;20063;-57
2023/05/20 03:42:06;;;;;;;3.30;1.95;;;;;;;21.08;61.14;100983.00;5092496;28;20056;-58
2023/05/20 03:44:34;;;;;;;3.63;2.13;;;;;;;21.09;61.20;100983.84;5073607;28;20052;-58
2023/05/20 03:47:02;;;;;;;3.13;1.73;;;;;;;21.08;61.05;100983.00;5077572;28;20040;-58
2023/05/20 03:49:30;;;;;;;3.78;1.73;;;;;;;21.07;61.16;100975.91;5094936;28;20044;-58
2023/05/20 03:51:58;;;;;;;3.17;1.98;;;;;;;21.07;61.06;100977.75;5096183;28;20055;-50
2023/05/20 03:54:26;;;;;;;3.80;2.63;;;;;;;21.08;60.99;100974.06;5094738;28;20040;-50
2023/05/20 03:56:55;;;;;;;3.20;2.05;;;;;;;21.07;61.10;100981.28;5094591;28;20055;-50
2023/05/20 03:59:23;;;;;;;6.63;2.35;;;;;;;21.07;60.99;100978.59;5094688;28;20048;-52
2023/05/20 04:01:50;;;;;;;4.03;2.25;;;;;;;21.07;60.98;100977.75;5096337;28;20051;-58
2023/05/20 04:04:17;;;;;;;3.08;1.88;;;;;;;21.08;61.07;100984.84;5095658;28;20052;-58
2023/05/20 04:06:45;;;;;;;3.17;2.00;;;;;;;21.07;60.93;100975.91;5095564;28;20051;-59
2023/05/20 04:09:12;;;;;;;3.22;2.00;;;;;;;21.07;60.98;100991.22;5095806;28;20039;-58
2023/05/20 04:11:40;;;;;;;5.15;2.40;;;;;;;21.06;60.95;100987.66;5095522;28;20051;-59
2023/05/20 04:14:09;;;;;;;3.95;2.20;;;;;;;21.06;60.84;100982.25;5095290;28;20396;-58
2023/05/20 04:16:37;;;;;;;3.13;1.50;;;;;;;21.05;60.84;100985.94;5094620;28;20075;-58
2023/05/20 04:19:06;;;;;;;3.60;2.40;;;;;;;21.06;60.98;100984.09;5077361;28;20052;-58
2023/05/20 04:21:33;;;;;;;3.08;2.17;;;;;;;21.06;60.94;100984.94;5094526;28;20052;-59
2023/05/20 04:24:01;;;;;;;4.60;2.25;;;;;;;21.06;60.86;100981.41;5095866;28;20056;-58
2023/05/20 04:26:28;;;;;;;3.92;2.13;;;;;;;21.05;60.88;100977.03;5093926;28;20496;-58
2023/05/20 04:28:57;;;;;;;3.83;2.05;;;;;;;21.05;61.03;100975.19;5095647;28;20058;-58
2023/05/20 04:31:26;;;;;;;3.75;1.48;;;;;;;21.05;61.01;100977.03;5094222;28;20055;-51
2023/05/20 04:33:53;;;;;;;3.17;1.98;;;;;;;21.05;60.92;100971.66;5093889;28;20059;-51
2023/05/20 04:36:27;;;;;;;3.53;2.40;;;;;;;21.05;61.13;100975.19;5094217;28;20044;-51
2023/05/20 04:38:55;;;;;;;;;;;;;;;21.04;60.99;100972.66;5094622;28;20048;-49
2023/05/20 04:41:23;;;;;;;3.75;2.22;;;;;;;21.05;60.85;100972.50;5093759;28;19927;-58
2023/05/20 04:43:50;;;;;;;3.83;2.08;;;;;;;21.05;60.77;100963.56;5086302;28;20052;-58
2023/05/20 04:46:19;;;;;;;5.00;2.33;;;;;;;21.05;60.89;100959.03;5073910;28;20067;-58
2023/05/20 04:48:47;;;;;;;4.18;2.35;;;;;;;21.04;60.98;100957.34;5073771;28;20044;-58
2023/05/20 04:51:15;;;;;;;3.75;1.73;;;;;;;21.04;60.94;100959.19;5073906;28;20075;-58
2023/05/20 04:53:43;;;;;;;3.50;2.00;;;;;;;21.04;60.92;100951.97;5073566;28;20051;-59
2023/05/20 04:56:12;;;;;;;3.28;1.88;;;;;;;21.03;60.97;100952.09;5074916;28;20052;-58
2023/05/20 04:58:40;;;;;;;3.20;2.10;;;;;;;21.04;60.94;100959.19;5073609;28;20048;-59
2023/05/20 05:01:08;;;;;;;3.20;2.10;;;;;;;21.04;60.95;100962.72;5073280;28;20059;-58
2023/05/20 05:03:35;;;;;;;3.80;1.98;;;;;;;21.04;61.07;100959.19;5074660;28;20041;-58
2023/05/20 05:06:03;;;;;;;2.97;1.80;;;;;;;21.04;61.04;100961.88;5072790;28;20512;-59
2023/05/20 05:08:31;;;;;;;2.95;1.85;;;;;;;21.04;61.14;100957.34;5073106;28;20048;-58
2023/05/20 05:10:59;;;;;;;3.53;1.70;;;;;;;21.04;61.05;100951.13;5072983;28;20500;-58
2023/05/20 05:13:26;;;;;;;2.97;2.13;;;;;;;21.04;61.00;100943.88;5073498;28;20048;-58
2023/05/20 05:15:58;;;;;;;4.45;1.95;;;;;;;21.03;61.18;100947.56;5072790;28;20060;-58
2023/05/20 05:18:28;;;;;;;3.17;1.90;;;;;;;21.05;61.13;100952.81;5073443;28;20057;-58
2023/05/20 05:21:00;;;;;;;3.78;2.33;;;;;;;21.04;61.04;100957.34;5072945;28;20508;-50
2023/05/20 05:23:28;;;;;;;2.90;1.83;;;;;;;21.04;61.10;100954.66;5073661;28;20055;-51
2023/05/20 05:25:56;;;;;;;2.95;1.90;;;;;;;21.04;61.06;100951.13;5073754;28;20056;-51
2023/05/20 05:28:24;;;;;;;3.25;2.10;;;;;;;21.05;61.06;100950.97;5056711;28;20060;-52
2023/05/20 05:30:53;;;;;;;4.88;2.45;;;;;;;21.04;61.11;100954.66;5072499;28;20059;-58
2023/05/20 05:33:21;;;;;;;4.18;2.35;;;;;;;21.04;61.11;100945.72;5072539;28;20048;-58
2023/05/20 05:35:49;;;;;;;3.58;2.08;;;;;;;21.03;61.16;100947.56;5073044;28;20056;-58
2023/05/20 05:38:17;;;;;;;2.95;1.88;;;;;;;21.04;61.11;100943.03;5073718;28;20048;-50
2023/05/20 05:40:44;;;;;;;3.33;1.98;;;;;;;21.03;61.08;100939.50;5072616;28;20059;-58
2023/05/20 05:43:12;;;;;;;2.75;1.85;;;;;;;21.03;61.08;100939.50;5072370;28;20072;-58
2023/05/20 05:45:41;;;;;;;4.07;1.83;;;;;;;21.04;61.19;100948.41;5071147;28;20048;-59
2023/05/20 05:48:09;;;;;;;3.53;2.17;;;;;;;21.04;61.18;100946.56;5083921;28;20032;-58
2023/05/20 05:50:37;;;;;;;4.05;1.90;;;;;;;21.04;61.10;100948.41;5092884;28;20048;-52
2023/05/20 05:53:04;;;;;;;2.70;1.90;;;;;;;21.04;61.17;100943.88;5094010;28;20564;-50
2023/05/20 05:55:32;;;;;;;3.22;2.10;;;;;;;21.04;61.22;100951.97;5092849;28;20052;-50
2023/05/20 05:58:00;;;;;;;3.08;2.00;;;;;;;21.02;61.14;100950.38;5092640;28;20403;-50
2023/05/20 06:00:29;;;;;;;3.33;2.33;;;;;;;21.04;61.32;100948.41;5082338;28;20052;-50
2023/05/20 06:02:56;;;;;;;3.05;2.00;;;;;;;21.03;61.11;100944.03;5073692;28;20059;-52
2023/05/20 06:05:33;;;;;;;3.15;2.08;;;;;;;21.04;61.20;100953.81;5072168;28;20048;-50
2023/05/20 06:08:01;;;;;;;4.13;2.05;;;;;;;21.03;61.23;100952.94;5071960;28;20044;-50
2023/05/20 06:10:30;;;;;;;3.00;1.58;;;;;;;21.05;61.19;100960.88;5072194;28;20064;-58
2023/05/20 06:12:57;;;;;;;2.85;1.67;;;;;;;21.03;61.19;100961.03;5073075;28;20053;-58
2023/05/20 06:15:25;;;;;;;3.85;1.80;;;;;;;21.03;61.32;100952.94;5071452;28;20384;-58
2023/05/20 06:17:53;;;;;;;3.30;1.80;;;;;;;21.04;61.44;100953.81;5072473;28;20040;-59
2023/05/20 06:20:21;;;;;;;3.08;2.28;;;;;;;21.03;61.25;100955.66;5072276;28;20075;-52
2023/05/20 06:22:48;;;;;;;2.83;1.50;;;;;;;21.04;61.36;100951.13;5073368;28;20057;-49
2023/05/20 06:25:16;;;;;;;3.65;1.85;;;;;;;21.03;61.34;100947.56;5055568;28;20126;-50
2023/05/20 06:27:44;;;;;;;2.50;1.80;;;;;;;21.03;61.28;100950.25;5071936;28;20059;-49
2023/05/20 06:30:16;;;;;;;2.95;1.52;;;;;;;21.04;61.32;100948.41;5071607;28;20049;-49
2023/05/20 06:32:45;;;;;;;2.97;1.70;;;;;;;21.03;61.28;100944.88;5082820;28;20052;-49
2023/05/20 06:35:13;;;;;;;2.30;1.55;;;;;;;21.04;61.40;100943.03;5076144;28;20055;-52
2023/05/20 06:37:40;;;;;;;4.05;1.92;;;;;;;21.04;61.37;100945.72;5093188;28;20051;-50
2023/05/20 06:40:09;;;;;;;2.75;1.42;;;;;;;21.03;61.44;100936.81;5092575;28;20051;-58
2023/05/20 06:42:36;;;;;;;2.95;1.65;;;;;;;21.04;61.48;100941.19;5091618;28;20051;-59
2023/05/20 06:45:05;;;;;;;3.97;1.90;;;;;;;21.03;61.57;100946.72;5089329;28;20059;-59
2023/05/20 06:48:02;;;;;;;2.88;1.80;;;;;;;21.03;61.51;100952.09;5072655;28;20045;-58
2023/05/20 06:50:29;;;;;;;3.00;1.90;;;;;;;21.03;61.51;100958.34;5071490;28;20045;-50
2023/05/20 06:52:57;;;;;;;2.80;1.63;;;;;;;21.04;61.52;100961.88;5071959;28;20049;-51
2023/05/20 06:55:25;;;;;;;2.55;1.77;;;;;;;21.04;61.69;100951.13;5055422;28;20052;-52
2023/05/20 06:57:53;;;;;;;3.63;1.77;;;;;;;21.05;61.52;100952.81;5071551;28;20500;-50
2023/05/20 07:00:21;;;;;;;7.28;3.55;;;;;;;21.01;61.66;100946.00;5071742;28;20049;-54
2023/05/20 07:02:50;;;;;;;6.63;4.82;;;;;;;20.87;61.84;100950.81;5071751;28;20570;-54
2023/05/20 07:05:19;;;;;;;9.45;5.13;;;;;;;20.77;62.05;100957.16;5071162;28;20049;-54
2023/05/20 07:07:46;;;;;;;7.03;5.22;;;;;;;20.63;62.35;100947.63;5070797;28;20048;-54
2023/05/20 07:10:14;;;;;;;7.60;4.88;;;;;;;20.57;62.47;100956.25;5071356;28;20052;-58
2023/05/20 07:12:42;;;;;;;6.78;4.88;;;;;;;20.52;62.54;100947.75;5078735;28;20055;-58
2023/05/20 07:15:09;;;;;;;7.80;5.53;;;;;;;20.45;62.95;100953.63;5075493;28;20055;-57
2023/05/20 07:17:38;;;;;;;7.60;6.53;;;;;;;20.39;62.95;100953.31;5073566;28;20391;-57
2023/05/20 07:20:07;;;;;;;7.15;6.07;;;;;;;20.28;63.10;100950.72;5091547;28;20055;-57
2023/05/20 07:22:35;;;;;;;6.93;5.68;;;;;;;20.22;63.64;100957.50;5091026;28;20495;-59
2023/05/20 07:25:21;;;;;;;10.43;6.68;;;;;;;20.13;63.63;100951.06;5092407;28;20040;-58
2023/05/20 07:27:48;;;;;;;8.00;6.38;;;;;;;20.05;63.91;100956.25;5092603;28;20510;-57
2023/05/20 07:30:15;;;;;;;8.07;6.10;;;;;;;19.98;64.18;100958.66;5085306;28;20048;-57
2023/05/20 07:32:51;;;;;;;7.65;6.80;;;;;;;19.97;64.62;100954.28;5071030;28;20045;-58
2023/05/20 07:35:18;;;;;;;8.00;6.45;;;;;;;19.94;64.48;100953.69;5071178;28;20052;-59
2023/05/20 07:37:46;;;;;;;7.50;6.72;;;;;;;19.92;64.51;100951.09;5072596;28;20040;-58
2023/05/20 07:40:13;;;;;;;10.20;5.95;;;;;;;19.96;64.22;100951.69;5071559;28;20052;-51
2023/05/20 07:42:41;;;;;;;6.28;5.53;;;;;;;20.08;63.93;100952.47;5072117;28;20048;-53
2023/05/20 07:45:09;;;;;;;5.05;3.90;;;;;;;20.21;63.95;100950.41;5071476;28;20065;-48
2023/05/20 07:47:38;;;;;;;5.40;3.63;;;;;;;20.30;63.65;100946.09;5069286;28;20472;-49
2023/05/20 07:50:05;;;;;;;6.97;3.83;;;;;;;20.39;63.43;100947.94;5090419;28;20052;-49
2023/05/20 07:52:35;;;;;;;5.88;3.58;;;;;;;20.45;63.31;100942.00;5091537;28;20063;-49
2023/05/20 07:55:24;;;;;;;4.78;3.42;;;;;;;20.51;63.29;100946.88;5093647;28;20051;-50
2023/05/20 07:57:51;;;;;;;7.07;3.63;;;;;;;20.55;63.17;100940.25;5094696;28;20059;-48
2023/05/20 08:00:21;;;;;;;4.63;3.13;;;;;;;20.58;63.13;100941.78;5074768;28;20052;-58
2023/05/20 08:02:48;;;;;;;4.93;2.95;;;;;;;20.61;62.89;100946.91;5075911;28;20048;-58
2023/05/20 08:05:23;;;;;;;4.70;3.47;;;;;;;20.63;62.84;100944.94;5074481;28;20049;-58
2023/05/20 08:07:51;;;;;;;4.30;2.63;;;;;;;20.66;62.77;100940.16;5074730;28;20056;-58
2023/05/20 08:10:21;;;;;;;3.88;2.53;;;;;;;20.70;62.67;100932.63;5073805;28;20048;-49
2023/05/20 08:12:48;;;;;;;3.47;2.60;;;;;;;20.72;62.70;100934.19;5074029;28;20052;-50
2023/05/20 08:15:19;;;;;;;4.88;3.08;;;;;;;20.74;62.71;100932.22;5075519;28;20041;-51
2023/05/20 08:17:47;;;;;;;5.00;3.00;;;;;;;20.77;62.59;100924.84;5074357;28;20045;-49
2023/05/20 08:20:14;;;;;;;3.95;2.67;;;;;;;20.78;62.51;100924.72;5057997;28;20049;-58
2023/05/20 08:22:42;;;;;;;4.00;2.65;;;;;;;20.80;62.44;100928.13;5074622;28;20049;-50
2023/05/20 08:25:09;;;;;;;3.92;2.65;;;;;;;20.83;62.45;100929.69;5073894;28;20052;-49
2023/05/20 08:27:37;;;;;;;3.22;2.30;;;;;;;20.84;62.31;100931.41;5073781;28;20044;-49
2023/05/20 08:30:08;;;;;;;4.13;2.55;;;;;;;20.86;62.44;100932.09;5090462;28;20068;-49
2023/05/20 08:32:36;;;;;;;4.80;3.13;;;;;;;20.86;62.30;100930.25;5078666;28;20067;-48
2023/05/20 08:35:04;;;;;;;4.07;2.83;;;;;;;20.89;62.47;100923.75;5093862;28;20403;-53
2023/05/20 08:37:31;;;;;;;4.65;2.75;;;;;;;20.90;62.45;100922.75;5093782;28;20055;-54
2023/05/20 08:39:59;;;;;;;4.18;3.45;;;;;;;20.91;62.20;100928.00;5093651;28;20538;-51
2023/05/20 08:42:26;;;;;;;7.53;3.33;;;;;;;20.92;62.20;100913.56;5093839;28;20404;-54
2023/05/20 08:44:56;;;;;;;5.70;2.92;;;;;;;20.94;62.26;100921.47;5093820;28;20427;-54
2023/05/20 08:47:25;;;;;;;3.65;2.47;;;;;;;20.96;62.38;100911.44;5086895;28;20036;-51
2023/05/20 08:49:53;;;;;;;4.13;2.92;;;;;;;20.96;62.46;100916.81;5078309;28;20040;-57
2023/05/20 08:52:21;;;;;;;6.03;3.17;;;;;;;20.96;62.46;100914.97;5094762;28;20047;-58
2023/05/20 08:54:50;;;;;;;4.35;3.05;;;;;;;20.97;62.41;100921.19;5094575;28;20052;-58
2023/05/20 08:57:19;;;;;;;4.05;2.90;;;;;;;20.98;62.30;100920.19;5094952;28;20040;-58
2023/05/20 08:59:46;;;;;;;3.90;2.70;;;;;;;20.98;62.30;100920.19;5090511;28;20392;-53
2023/05/20 09:02:14;;;;;;;4.72;3.28;;;;;;;21.01;62.30;100919.09;5073400;28;20056;-50
2023/05/20 09:04:42;;;;;;;3.83;2.47;;;;;;;21.02;62.36;100918.94;5074635;28;20056;-51
2023/05/20 09:07:09;;;;;;;4.35;2.92;;;;;;;20.99;62.34;100928.16;5074210;28;20048;-51
2023/05/20 09:09:36;;;;;;;4.43;2.38;;;;;;;20.98;62.22;100923.78;5073861;28;20056;-51
2023/05/20 09:12:04;;;;;;;4.60;2.88;;;;;;;20.98;62.32;100922.91;5074028;28;20044;-51
2023/05/20 09:14:31;;;;;;;3.28;2.53;;;;;;;20.98;62.35;100920.19;5072780;28;20049;-50
2023/05/20 09:16:59;;;;;;;3.85;2.38;;;;;;;20.97;62.31;100923.91;5073114;28;20051;-50
2023/05/20 09:19:26;;;;;;;3.58;2.63;;;;;;;20.98;62.30;100925.59;5072866;28;20044;-49
2023/05/20 09:21:55;;;;;;;4.40;2.72;;;;;;;20.97;62.27;100924.75;5073440;28;20049;-49
2023/05/20 09:24:24;;;;;;;3.70;2.33;;;;;;;20.96;62.18;100925.75;5073411;28;20412;-52
2023/05/20 09:26:51;;;;;;;3.88;2.95;;;;;;;20.97;62.26;100926.59;5073422;28;20460;-50
2023/05/20 09:29:20;;;;;;;3.15;2.13;;;;;;;20.96;62.09;100911.44;5073706;28;20041;-51
2023/05/20 09:31:48;;;;;;;4.35;3.08;;;;;;;20.95;62.16;100915.13;5073687;28;20416;-50
2023/05/20 09:34:16;;;;;;;4.45;2.92;;;;;;;20.95;62.00;100910.59;5073170;28;20048;-50
2023/05/20 09:36:44;;;;;;;3.95;3.20;;;;;;;20.95;62.15;100912.44;5073226;28;20053;-52
2023/05/20 09:39:14;;;;;;;3.65;2.90;;;;;;;20.95;62.08;100918.66;5077615;28;20047;-50
2023/05/20 09:41:51;;;;;;;5.07;2.80;;;;;;;20.94;62.09;100911.59;5093595;28;20522;-58
2023/05/20 09:44:20;;;;;;;4.57;3.00;;;;;;;20.94;62.05;100916.09;5093445;28;20408;-58
2023/05/20 09:46:48;;;;;;;4.70;3.13;;;;;;;20.95;62.03;100925.88;5093715;28;20407;-58
2023/05/20 09:49:17;;;;;;;3.20;2.58;;;;;;;20.94;61.99;100911.59;5081034;28;20510;-58
2023/05/20 09:51:46;;;;;;;4.93;2.70;;;;;;;20.94;61.95;100913.41;5072383;28;20048;-52
2023/05/20 09:54:16;;;;;;;3.40;2.63;;;;;;;20.93;61.94;100912.56;5071982;28;20053;-50
2023/05/20 09:56:45;;;;;;;3.67;2.83;;;;;;;20.94;61.99;100918.78;5072866;28;20052;-50
2023/05/20 09:59:17;;;;;;;3.72;2.58;;;;;;;20.94;61.72;100910.72;5073089;28;20056;-50
2023/05/20 10:01:45;;;;;;;5.28;3.35;;;;;;;20.93;61.81;100912.56;5073282;28;20412;-51
2023/05/20 10:04:16;;;;;;;4.95;2.85;;;;;;;20.94;61.93;100910.72;5073022;28;20044;-50
2023/05/20 10:07:00;;;;;;;4.68;3.03;;;;;;;20.93;61.91;100900.94;5072702;28;20428;-49
2023/05/20 10:09:42;;;;;;;4.45;3.28;;;;;;;20.92;61.85;100881.25;5072846;28;20075;-52
2023/05/20 10:12:18;;;;;;;5.10;2.80;;;;;;;20.93;61.73;100887.50;5073024;28;20092;-58
2023/05/20 10:14:53;;;;;;;3.58;2.75;;;;;;;20.92;61.68;100883.94;5072617;28;20052;-58
2023/05/20 10:17:47;;;;;;;5.22;3.13;;;;;;;20.92;61.78;100885.78;5071952;28;20404;-58
2023/05/20 10:20:14;;;;;;;;;;;;;;;20.91;61.78;100881.41;5073036;28;20400;-58
2023/05/20 10:22:44;;;;;;;3.75;2.97;;;;;;;20.92;61.53;100878.56;5072746;28;20273;-58
2023/05/20 10:25:26;;;;;;;3.55;2.60;;;;;;;20.92;61.67;100885.78;5072509;28;20044;-58
2023/05/20 10:28:06;;;;;;;4.30;2.95;;;;;;;20.92;61.76;100877.72;5071523;28;20420;-58
2023/05/20 10:30:34;;;;;;;3.90;2.97;;;;;;;20.92;61.54;100889.34;5088443;28;20052;-50
2023/05/20 10:33:04;;;;;;;4.15;2.80;;;;;;;20.91;61.66;100887.63;5092186;28;20118;-53
2023/05/20 10:35:32;;;;;;;4.35;2.95;;;;;;;20.93;61.68;100895.56;5092483;28;20044;-51
2023/05/20 10:38:10;;;;;;;5.57;3.03;;;;;;;20.91;61.59;100893.03;5092354;28;20048;-50
2023/05/20 10:40:38;;;;;;;5.38;3.10;;;;;;;20.91;61.80;100884.94;5092644;28;20091;-58
2023/05/20 10:43:25;;;;;;;4.82;3.03;;;;;;;20.91;61.56;100889.47;5092878;28;20048;-58
2023/05/20 10:45:57;;;;;;;3.90;2.88;;;;;;;20.91;61.46;100887.63;5092360;28;20044;-58
2023/05/20 10:48:26;;;;;;;3.85;3.00;;;;;;;20.92;61.56;100883.09;5092323;28;20048;-58
2023/05/20 10:50:56;;;;;;;3.42;2.83;;;;;;;20.93;61.58;100882.09;5072891;28;20040;-51
2023/05/20 10:53:25;;;;;;;4.25;2.88;;;;;;;20.92;61.53;100877.72;5071140;28;20060;-50
2023/05/20 10:56:01;;;;;;;4.85;3.60;;;;;;;20.92;61.62;100870.50;5072245;28;20404;-51
2023/05/20 10:58:37;;;;;;;4.70;3.80;;;;;;;20.92;61.46;100869.66;5071441;28;20056;-52
2023/05/20 11:01:04;;;;;;;3.88;2.90;;;;;;;20.93;61.47;100868.66;5076721;28;20051;-49
2023/05/20 11:03:34;;;;;;;5.25;3.40;;;;;;;20.94;61.46;100864.97;5072757;28;20373;-48
2023/05/20 11:06:10;;;;;;;4.00;3.03;;;;;;;20.95;61.46;100864.84;5072964;28;20395;-49
2023/05/20 11:08:37;;;;;;;4.20;3.13;;;;;;;20.98;61.59;100869.94;5072295;28;20048;-48
2023/05/20 11:11:05;;;;;;;5.22;3.65;;;;;;;20.98;61.59;100869.94;5071029;28;20071;-58
2023/05/20 11:13:33;;;;;;;5.93;4.00;;;;;;;21.00;61.65;100869.78;5070860;28;20484;-58
2023/05/20 11:16:00;;;;;;;5.65;4.20;;;;;;;20.99;61.64;100868.94;5074377;28;20476;-57
2023/05/20 11:18:31;;;;;;;4.97;4.10;;;;;;;21.01;61.78;100859.88;5092717;28;20400;-57
2023/05/20 11:20:59;;;;;;;5.20;4.32;;;;;;;21.00;61.75;100861.72;5092860;28;20055;-58
2023/05/20 11:23:28;;;;;;;5.38;4.43;;;;;;;21.02;61.81;100870.47;5092541;28;20048;-57
2023/05/20 11:25:56;;;;;;;5.47;4.10;;;;;;;21.03;61.76;100874.06;5092796;28;20059;-58
2023/05/20 11:28:24;;;;;;;4.60;3.60;;;;;;;21.03;61.72;100871.34;5087491;28;20049;-57
2023/05/20 11:30:52;;;;;;;5.28;4.40;;;;;;;21.03;61.76;100874.91;5076424;28;20383;-57
2023/05/20 11:33:19;;;;;;;5.35;4.43;;;;;;;21.02;61.82;100870.47;5075356;28;20056;-58
2023/05/20 11:35:50;;;;;;;4.55;3.90;;;;;;;21.03;61.72;100863.28;5075758;28;20053;-58